clima

HORA PREDICCIÓN TEMPERATURA VIENTO HUMEDAD
2021-08-01 00:00:00 Parcialmente nublado 4 2.37 0.77
2021-08-01 01:00:00 Mayormente nublado 4 2.71 0.78
2021-08-01 02:00:00 Mayormente nublado 4 2.42 0.78
2021-08-01 03:00:00 Mayormente nublado 3 2.6 0.78
2021-08-01 04:00:00 Mayormente nublado 3 2.58 0.76
2021-08-01 05:00:00 Parcialmente nublado 3 2.67 0.76
2021-08-01 06:00:00 Parcialmente nublado 3 2.92 0.75
2021-08-01 07:00:00 Parcialmente nublado 2 3.03 0.75
2021-08-01 08:00:00 Parcialmente nublado 2 3.02 0.76
2021-08-01 09:00:00 Parcialmente nublado 3 3.01 0.74
2021-08-01 10:00:00 Parcialmente nublado 5 3.15 0.7
2021-08-01 11:00:00 Parcialmente nublado 8 3.06 0.64
2021-08-01 12:00:00 Despejado 9 2.57 0.6
2021-08-01 13:00:00 Despejado 11 2 0.58
2021-08-01 14:00:00 Parcialmente nublado 12 2.67 0.58
2021-08-01 15:00:00 Parcialmente nublado 12 2.8 0.6
2021-08-01 16:00:00 Mayormente nublado 12 2.53 0.64
2021-08-01 17:00:00 Parcialmente nublado 11 2.44 0.69
2021-08-01 18:00:00 Mayormente nublado 9 2.06 0.71
2021-08-01 19:00:00 Mayormente nublado 9 2.25 0.72
2021-08-01 20:00:00 Mayormente nublado 8 2.15 0.72
2021-08-01 21:00:00 Parcialmente nublado 7 2.33 0.73
2021-08-01 22:00:00 Mayormente nublado 6 2.23 0.73
2021-08-01 23:00:00 Mayormente nublado 6 2.51 0.73

Mesón de informaciones

(56 65) 229 4161

Horario

24 horas del día.

Edificio Terminal de pasajeros,

Aeropuerto El Tepual Puerto Montt

Región de los Lagos, Chile.